Time;durP1;ratioP1;P1;durP2;ratioP2;P2;SDS_P1;SDS_P2;PMS_P1;PMS_P2;Temp;Humidity;BMP_temperature;BMP_pressure;BME280_temperature;BME280_humidity;BME280_pressure;Samples;Min_cycle;Max_cycle;Signal;HPM_P1;HPM_P2
2022/12/26 00:01:53;;;;;;;6.93;6.33;;;;;;;;;;5080531;28;20243;-56
2022/12/26 00:04:20;;;;;;;9.03;6.53;;;;;;;;;;5081114;28;20223;-55
2022/12/26 00:06:46;;;;;;;12.67;6.70;;;;;;;;;;5083436;28;20269;-55
2022/12/26 00:09:14;;;;;;;6.73;6.03;;;;;;;;;;5083744;28;20762;-58
2022/12/26 00:11:41;;;;;;;6.67;5.97;;;;;;;;;;5083785;28;20226;-57
2022/12/26 00:14:08;;;;;;;9.63;6.90;;;;;;;;;;5064075;28;20300;-56
2022/12/26 00:16:35;;;;;;;6.60;6.00;;;;;;;;;;5080415;28;20980;-56
2022/12/26 00:19:02;;;;;;;6.50;5.87;;;;;;;;;;5063075;28;20227;-54
2022/12/26 00:21:29;;;;;;;6.17;5.57;;;;;;;;;;5083774;28;20237;-56
2022/12/26 00:23:57;;;;;;;6.57;5.93;;;;;;;;;;5064593;28;20271;-54
2022/12/26 00:26:26;;;;;;;8.50;7.07;;;;;;;;;;5067056;28;20677;-55
2022/12/26 00:28:53;;;;;;;11.50;6.40;;;;;;;;;;5063990;28;20297;-55
2022/12/26 00:31:21;;;;;;;7.17;6.50;;;;;;;;;;5063116;28;20231;-55
2022/12/26 00:33:48;;;;;;;6.73;6.00;;;;;;;;;;5063978;28;20231;-55
2022/12/26 00:36:16;;;;;;;7.67;6.70;;;;;;;;;;5073404;28;20254;-55
2022/12/26 00:38:43;;;;;;;6.93;6.23;;;;;;;;;;5080870;28;20238;-55
2022/12/26 00:41:10;;;;;;;9.53;6.43;;;;;;;;;;5075297;28;20603;-55
2022/12/26 00:43:38;;;;;;;10.77;7.60;;;;;;;;;;5064995;28;20247;-55
2022/12/26 00:46:05;;;;;;;9.17;6.50;;;;;;;;;;5063804;28;20289;-55
2022/12/26 00:48:32;;;;;;;8.87;6.77;;;;;;;;;;5064467;28;20671;-54
2022/12/26 00:50:59;;;;;;;8.17;7.17;;;;;;;;;;5064676;28;20904;-54
2022/12/26 00:53:25;;;;;;;9.00;6.63;;;;;;;;;;5080137;28;20617;-55
2022/12/26 00:55:52;;;;;;;7.10;6.40;;;;;;;;;;5084499;28;20764;-55
2022/12/26 00:58:19;;;;;;;7.30;6.63;;;;;;;;;;5083080;28;20314;-55
2022/12/26 01:00:47;;;;;;;7.20;6.47;;;;;;;;;;5078442;28;20646;-57
2022/12/26 01:03:15;;;;;;;7.57;6.70;;;;;;;;;;5083419;28;20736;-54
2022/12/26 01:05:41;;;;;;;8.20;6.07;;;;;;;;;;5084204;28;20234;-54
2022/12/26 01:08:08;;;;;;;8.17;6.00;;;;;;;;;;5084590;28;20735;-55
2022/12/26 01:10:35;;;;;;;6.57;5.97;;;;;;;;;;5088595;28;20261;-55
2022/12/26 01:13:01;;;;;;;6.57;5.97;;;;;;;;;;5087326;28;20234;-55
2022/12/26 01:15:28;;;;;;;6.83;6.10;;;;;;;;;;5088029;28;20309;-54
2022/12/26 01:17:58;;;;;;;7.90;6.57;;;;;;;;;;5086500;28;20712;-55
2022/12/26 01:20:24;;;;;;;6.10;5.57;;;;;;;;;;5072573;28;20235;-53
2022/12/26 01:22:51;;;;;;;8.33;5.83;;;;;;;;;;5068355;28;20335;-54
2022/12/26 01:25:17;;;;;;;10.40;5.30;;;;;;;;;;5069481;28;20237;-57
2022/12/26 01:27:44;;;;;;;5.57;4.83;;;;;;;;;;5068443;28;20360;-56
2022/12/26 01:30:11;;;;;;;5.73;4.77;;;;;;;;;;5068607;28;20261;-56
2022/12/26 01:32:37;;;;;;;6.90;4.23;;;;;;;;;;5075735;28;20270;-55
2022/12/26 01:35:06;;;;;;;6.03;5.37;;;;;;;;;;5074342;28;20242;-54
2022/12/26 01:37:32;;;;;;;5.93;4.97;;;;;;;;;;5081626;28;20227;-55
2022/12/26 01:39:59;;;;;;;5.50;4.90;;;;;;;;;;5087164;28;20284;-54
2022/12/26 01:42:26;;;;;;;5.23;4.73;;;;;;;;;;5071014;28;20702;-55
2022/12/26 01:45:03;;;;;;;5.30;4.73;;;;;;;;;;5066457;28;20308;-55
2022/12/26 01:47:40;;;;;;;4.80;4.30;;;;;;;;;;5066391;28;20230;-54
2022/12/26 01:50:12;;;;;;;5.27;4.77;;;;;;;;;;5065011;28;20334;-54
2022/12/26 01:52:42;;;;;;;5.00;4.50;;;;;;;;;;5076281;28;20600;-54
2022/12/26 01:55:10;;;;;;;4.93;4.43;;;;;;;;;;5082889;28;20230;-54
2022/12/26 01:57:40;;;;;;;4.97;4.53;;;;;;;;;;5086180;28;20310;-54
2022/12/26 02:00:07;;;;;;;5.70;4.90;;;;;;;;;;5066138;28;20251;-53
2022/12/26 02:05:32;;;;;;;5.33;4.83;;;;;;;;;;5066548;28;20243;-54
2022/12/26 02:05:34;;;;;;;6.30;4.57;;;;;;;;;;5066518;28;20330;-54
2022/12/26 02:08:03;;;;;;;5.70;4.90;;;;;;;;;;5066129;28;20249;-53
2022/12/26 02:10:32;;;;;;;6.40;4.43;;;;;;;;;;5066108;28;20242;-54
2022/12/26 02:12:58;;;;;;;4.87;4.37;;;;;;;;;;5086355;28;20238;-55
2022/12/26 02:15:25;;;;;;;5.23;4.73;;;;;;;;;;5087579;28;20226;-55
2022/12/26 02:17:52;;;;;;;6.03;5.50;;;;;;;;;;5073312;28;20231;-57
2022/12/26 02:20:20;;;;;;;7.80;5.10;;;;;;;;;;5080835;28;20652;-54
2022/12/26 02:23:14;;;;;;;5.10;4.40;;;;;;;;;;5081723;28;20227;-55
2022/12/26 02:26:01;;;;;;;6.07;5.00;;;;;;;;;;5067287;28;20237;-55
2022/12/26 02:28:39;;;;;;;6.47;5.30;;;;;;;;;;5083058;28;20275;-54
2022/12/26 02:31:11;;;;;;;5.40;4.90;;;;;;;;;;5079314;28;20234;-55
2022/12/26 02:33:46;;;;;;;10.80;5.67;;;;;;;;;;5085216;28;20261;-54
2022/12/26 02:36:30;;;;;;;5.27;4.77;;;;;;;;;;5081644;28;20249;-54
2022/12/26 02:39:03;;;;;;;5.93;3.97;;;;;;;;;;5057543;28;20284;-54
2022/12/26 02:41:34;;;;;;;4.93;4.13;;;;;;;;;;5065608;28;20250;-55
2022/12/26 02:47:01;;;;;;;4.53;4.13;;;;;;;;;;5084647;28;20245;-56
2022/12/26 02:47:03;;;;;;;4.67;4.27;;;;;;;;;;5084629;28;20265;-55
2022/12/26 03:13:09;;;;;;;4.67;4.27;;;;;;;;;;5086013;28;20234;-55
2022/12/26 03:15:11;;;;;;;4.57;4.10;;;;;;;;;;5067029;28;20382;-55
2022/12/26 03:17:38;;;;;;;5.37;4.10;;;;;;;;;;5063998;28;20239;-54
2022/12/26 03:20:10;;;;;;;4.43;3.50;;;;;;;;;;5064333;28;20301;-54
2022/12/26 03:22:39;;;;;;;4.20;3.80;;;;;;;;;;5066061;28;20235;-54
2022/12/26 03:27:53;;;;;;;4.57;4.17;;;;;;;;;;5083243;28;20237;-55
2022/12/26 03:33:04;;;;;;;4.20;3.80;;;;;;;;;;5085230;28;20307;-54
2022/12/26 03:35:32;;;;;;;4.87;3.67;;;;;;;;;;5085491;28;20230;-55
2022/12/26 03:38:01;;;;;;;5.00;4.30;;;;;;;;;;5065650;28;20247;-55
2022/12/26 04:19:49;;;;;;;4.90;3.30;;;;;;;;;;5063691;28;20646;-54
2022/12/26 04:44:30;;;;;;;3.97;3.57;;;;;;;;;;5090635;28;20248;-55
2022/12/26 04:46:57;;;;;;;3.07;2.87;;;;;;;;;;5090733;28;20227;-55
2022/12/26 04:52:09;;;;;;;5.07;3.67;;;;;;;;;;5089214;28;20265;-55
2022/12/26 04:54:35;;;;;;;4.67;3.57;;;;;;;;;;5085588;28;20231;-54
2022/12/26 04:57:04;;;;;;;3.63;3.33;;;;;;;;;;5079018;28;20246;-54
2022/12/26 04:59:31;;;;;;;4.00;3.30;;;;;;;;;;5068100;28;20311;-53
2022/12/26 05:10:15;;;;;;;3.80;3.50;;;;;;;;;;5046369;28;20239;-54
2022/12/26 05:12:43;;;;;;;4.50;3.80;;;;;;;;;;5068119;28;20505;-54
2022/12/26 05:15:10;;;;;;;4.67;3.03;;;;;;;;;;5068364;28;20677;-54
2022/12/26 05:28:44;;;;;;;5.00;3.10;;;;;;;;;;5088151;28;20699;-54
2022/12/26 05:31:11;;;;;;;4.40;3.37;;;;;;;;;;5086485;28;20727;-53
2022/12/26 05:36:22;;;;;;;5.17;2.83;;;;;;;;;;5087141;28;20977;-54
2022/12/26 05:38:50;;;;;;;3.67;3.37;;;;;;;;;;5087765;28;20719;-54
2022/12/26 05:41:17;;;;;;;3.57;3.27;;;;;;;;;;5080848;28;20235;-54
2022/12/26 05:43:45;;;;;;;3.90;3.60;;;;;;;;;;5069314;28;20231;-54
2022/12/26 05:46:11;;;;;;;2.77;2.57;;;;;;;;;;5067630;28;20224;-54
2022/12/26 05:48:38;;;;;;;3.10;2.80;;;;;;;;;;5066752;28;20285;-54
2022/12/26 05:51:05;;;;;;;3.20;2.80;;;;;;;;;;5071100;28;20235;-54
2022/12/26 05:53:32;;;;;;;3.27;2.97;;;;;;;;;;5077886;28;20720;-54
2022/12/26 05:56:01;;;;;;;3.20;2.90;;;;;;;;;;5085890;28;20230;-55
2022/12/26 05:58:28;;;;;;;4.30;3.67;;;;;;;;;;5086297;28;20614;-55
2022/12/26 06:01:04;;;;;;;4.50;3.27;;;;;;;;;;5067349;28;20620;-55
2022/12/26 06:03:31;;;;;;;4.90;3.07;;;;;;;;;;5067432;28;20614;-53
2022/12/26 06:05:58;;;;;;;3.43;3.13;;;;;;;;;;5066755;28;20650;-54
2022/12/26 06:08:24;;;;;;;4.27;3.13;;;;;;;;;;5065103;28;20816;-55
2022/12/26 06:10:51;;;;;;;3.40;3.10;;;;;;;;;;5067661;28;20242;-55
2022/12/26 06:13:18;;;;;;;4.17;3.10;;;;;;;;;;5076100;28;20234;-55
2022/12/26 06:15:44;;;;;;;3.17;2.87;;;;;;;;;;5082047;28;20231;-55
2022/12/26 06:18:12;;;;;;;3.77;2.70;;;;;;;;;;5081667;28;20231;-55
2022/12/26 06:20:39;;;;;;;2.90;2.70;;;;;;;;;;5083044;28;20227;-55
2022/12/26 06:23:05;;;;;;;3.17;2.87;;;;;;;;;;5100460;28;20333;-55
2022/12/26 06:25:32;;;;;;;3.10;2.90;;;;;;;;;;5102809;28;20227;-55
2022/12/26 06:27:59;;;;;;;3.77;3.43;;;;;;;;;;5079650;28;20235;-54
2022/12/26 06:30:25;;;;;;;3.40;2.87;;;;;;;;;;5068090;28;20644;-53
2022/12/26 06:32:52;;;;;;;3.30;3.00;;;;;;;;;;5086236;28;20230;-54
2022/12/26 06:35:20;;;;;;;3.50;2.90;;;;;;;;;;5086558;28;20605;-53
2022/12/26 06:37:46;;;;;;;3.00;2.80;;;;;;;;;;5083534;28;20254;-55
2022/12/26 06:40:13;;;;;;;3.77;2.93;;;;;;;;;;5067007;28;20277;-53
2022/12/26 06:42:39;;;;;;;3.63;2.80;;;;;;;;;;5082409;28;20234;-55
2022/12/26 06:45:06;;;;;;;5.50;3.70;;;;;;;;;;5070956;28;20246;-54
2022/12/26 06:47:33;;;;;;;3.37;3.07;;;;;;;;;;5067537;28;20829;-54
2022/12/26 06:50:00;;;;;;;3.13;2.83;;;;;;;;;;5066568;28;20232;-55
2022/12/26 06:52:27;;;;;;;3.70;3.00;;;;;;;;;;5071990;28;20234;-54
2022/12/26 06:54:54;;;;;;;3.50;3.13;;;;;;;;;;5076199;28;20303;-54
2022/12/26 06:57:21;;;;;;;4.93;3.37;;;;;;;;;;5084676;28;20234;-53
2022/12/26 06:59:47;;;;;;;3.33;3.00;;;;;;;;;;5067072;28;20280;-55
2022/12/26 07:02:14;;;;;;;2.83;2.63;;;;;;;;;;5065550;28;20239;-54
2022/12/26 07:04:40;;;;;;;3.03;2.80;;;;;;;;;;5064169;28;20318;-54
2022/12/26 07:07:07;;;;;;;3.83;3.17;;;;;;;;;;5065061;28;20227;-53
2022/12/26 07:09:35;;;;;;;4.40;3.53;;;;;;;;;;5073698;28;20246;-55
2022/12/26 07:12:02;;;;;;;3.60;3.20;;;;;;;;;;5073412;28;20243;-54
2022/12/26 07:14:28;;;;;;;2.90;2.70;;;;;;;;;;5058967;28;20242;-55
2022/12/26 07:16:55;;;;;;;2.97;2.73;;;;;;;;;;5085095;28;20226;-54
2022/12/26 07:19:22;;;;;;;4.03;3.27;;;;;;;;;;5085968;28;20916;-54
2022/12/26 07:21:48;;;;;;;3.47;2.83;;;;;;;;;;5074518;28;20244;-55
2022/12/26 07:24:16;;;;;;;3.13;2.40;;;;;;;;;;5066351;28;20277;-54
2022/12/26 07:26:44;;;;;;;3.00;2.80;;;;;;;;;;5078221;28;20297;-55
2022/12/26 07:29:11;;;;;;;2.60;2.40;;;;;;;;;;5084464;28;20253;-53
2022/12/26 07:31:38;;;;;;;3.27;2.97;;;;;;;;;;5084381;28;20299;-53
2022/12/26 07:34:04;;;;;;;2.90;2.70;;;;;;;;;;5085374;28;20284;-54
2022/12/26 07:36:31;;;;;;;3.50;3.20;;;;;;;;;;5073911;28;20230;-54
2022/12/26 07:38:58;;;;;;;4.57;3.03;;;;;;;;;;5063895;28;20233;-55
2022/12/26 07:44:10;;;;;;;2.70;2.50;;;;;;;;;;5065368;28;20250;-54
2022/12/26 07:46:37;;;;;;;3.23;2.93;;;;;;;;;;5064612;28;20243;-54
2022/12/26 07:49:03;;;;;;;3.10;2.90;;;;;;;;;;5066448;28;20228;-53
2022/12/26 07:51:30;;;;;;;3.60;3.07;;;;;;;;;;5069094;28;20235;-56
2022/12/26 07:53:56;;;;;;;4.33;2.90;;;;;;;;;;5072893;28;20310;-54
2022/12/26 07:56:23;;;;;;;3.60;3.30;;;;;;;;;;5064277;28;20292;-54
2022/12/26 07:58:49;;;;;;;3.33;3.03;;;;;;;;;;5065404;28;20701;-54
2022/12/26 08:01:18;;;;;;;4.00;3.33;;;;;;;;;;5063805;28;20242;-57
2022/12/26 08:03:44;;;;;;;4.20;3.27;;;;;;;;;;5064968;28;20587;-54
2022/12/26 08:06:11;;;;;;;4.17;3.77;;;;;;;;;;5077088;28;20261;-54
2022/12/26 08:08:38;;;;;;;3.80;2.93;;;;;;;;;;5066964;28;20242;-54
2022/12/26 08:11:05;;;;;;;3.40;3.10;;;;;;;;;;5065269;28;20778;-56
2022/12/26 08:13:32;;;;;;;3.30;3.00;;;;;;;;;;5065499;28;20242;-56
2022/12/26 08:16:00;;;;;;;3.47;3.17;;;;;;;;;;5078453;28;20355;-54
2022/12/26 08:18:28;;;;;;;4.77;2.97;;;;;;;;;;5084296;28;20322;-55
2022/12/26 08:20:55;;;;;;;3.67;2.40;;;;;;;;;;5080553;28;20280;-55
2022/12/26 08:23:21;;;;;;;3.10;2.90;;;;;;;;;;5068960;28;20245;-55
2022/12/26 08:25:48;;;;;;;5.93;2.33;;;;;;;;;;5076686;28;20247;-55
2022/12/26 08:28:16;;;;;;;3.00;2.80;;;;;;;;;;5064539;28;20230;-55
2022/12/26 08:30:43;;;;;;;3.80;2.80;;;;;;;;;;5071305;28;20226;-54
2022/12/26 08:33:10;;;;;;;4.83;2.80;;;;;;;;;;5078724;28;20234;-54
2022/12/26 08:35:38;;;;;;;2.73;2.40;;;;;;;;;;5071619;28;20243;-54
2022/12/26 08:38:05;;;;;;;3.33;3.03;;;;;;;;;;5083745;28;20287;-55
2022/12/26 08:40:32;;;;;;;4.80;3.27;;;;;;;;;;5077979;28;20230;-55
2022/12/26 08:42:58;;;;;;;3.63;3.27;;;;;;;;;;5090881;28;20247;-56
2022/12/26 08:45:25;;;;;;;3.70;2.23;;;;;;;;;;5075785;28;20268;-58
2022/12/26 08:47:53;;;;;;;2.70;2.50;;;;;;;;;;5085867;28;20291;-54
2022/12/26 08:50:23;;;;;;;2.97;2.57;;;;;;;;;;5078145;28;20300;-56
2022/12/26 08:52:51;;;;;;;1.80;1.70;;;;;;;;;;5071833;28;20232;-55
2022/12/26 08:55:18;;;;;;;2.70;2.50;;;;;;;;;;5064533;28;20910;-55
2022/12/26 08:57:44;;;;;;;3.17;2.03;;;;;;;;;;5065294;28;20227;-54
2022/12/26 09:00:11;;;;;;;2.53;2.33;;;;;;;;;;5064520;28;20238;-54
2022/12/26 09:02:38;;;;;;;2.77;2.50;;;;;;;;;;5073441;28;20242;-55
2022/12/26 09:05:05;;;;;;;4.60;4.20;;;;;;;;;;5070433;28;20239;-55
2022/12/26 09:07:32;;;;;;;2.93;2.53;;;;;;;;;;5063471;28;20279;-53
2022/12/26 09:09:59;;;;;;;2.30;2.10;;;;;;;;;;5064503;28;20243;-55
2022/12/26 09:12:26;;;;;;;2.70;2.50;;;;;;;;;;5064462;28;20304;-54
2022/12/26 09:14:53;;;;;;;2.90;2.47;;;;;;;;;;5068817;28;20226;-55
2022/12/26 09:17:19;;;;;;;2.70;2.47;;;;;;;;;;5084438;28;20227;-57
2022/12/26 09:19:46;;;;;;;2.53;2.33;;;;;;;;;;5084551;28;20231;-56
2022/12/26 09:24:56;;;;;;;3.63;2.60;;;;;;;;;;5083545;28;20233;-55
2022/12/26 09:27:24;;;;;;;2.63;2.23;;;;;;;;;;5068050;28;20235;-55
2022/12/26 09:29:51;;;;;;;2.63;2.20;;;;;;;;;;5067353;28;20231;-54
2022/12/26 09:32:17;;;;;;;4.20;3.20;;;;;;;;;;5083097;28;20258;-56
2022/12/26 09:34:44;;;;;;;3.00;2.73;;;;;;;;;;5071755;28;20782;-54
2022/12/26 09:37:10;;;;;;;4.23;3.80;;;;;;;;;;5079130;28;20231;-54
2022/12/26 09:39:37;;;;;;;2.50;2.30;;;;;;;;;;5066678;28;20227;-60
2022/12/26 09:42:08;;;;;;;5.60;2.73;;;;;;;;;;5074285;28;20227;-55
2022/12/26 09:44:42;;;;;;;3.10;2.90;;;;;;;;;;5075191;28;20661;-54
2022/12/26 09:47:16;;;;;;;2.70;2.40;;;;;;;;;;5074908;28;20243;-55
2022/12/26 09:49:51;;;;;;;2.87;2.60;;;;;;;;;;5067023;28;20257;-56
2022/12/26 09:52:20;;;;;;;2.70;2.50;;;;;;;;;;5076319;28;20294;-55
2022/12/26 09:54:49;;;;;;;3.73;3.13;;;;;;;;;;5068878;28;20743;-56
2022/12/26 09:57:17;;;;;;;3.23;2.93;;;;;;;;;;5069745;28;20231;-62
2022/12/26 09:59:47;;;;;;;2.77;2.57;;;;;;;;;;5079333;28;20233;-55
2022/12/26 10:02:17;;;;;;;2.83;2.63;;;;;;;;;;5083570;28;20231;-54
2022/12/26 10:04:43;;;;;;;2.63;2.43;;;;;;;;;;5083806;28;20230;-56
2022/12/26 10:07:14;;;;;;;2.70;2.50;;;;;;;;;;5086083;28;20313;-55
2022/12/26 10:09:50;;;;;;;2.87;2.57;;;;;;;;;;5086818;28;20230;-54
2022/12/26 10:12:28;;;;;;;2.10;2.00;;;;;;;;;;5086487;28;20230;-54
2022/12/26 10:14:59;;;;;;;3.10;2.80;;;;;;;;;;5080449;28;20230;-54
2022/12/26 10:17:28;;;;;;;3.10;2.77;;;;;;;;;;5085062;28;20230;-55
2022/12/26 10:20:01;;;;;;;2.63;2.43;;;;;;;;;;5087050;28;20242;-55
2022/12/26 10:22:47;;;;;;;3.03;2.17;;;;;;;;;;5087322;28;20601;-55
2022/12/26 10:25:16;;;;;;;2.43;2.23;;;;;;;;;;5074304;28;20231;-53
2022/12/26 10:27:45;;;;;;;2.50;2.13;;;;;;;;;;5067592;28;20231;-53
2022/12/26 10:30:18;;;;;;;3.03;2.60;;;;;;;;;;5066674;28;20697;-54
2022/12/26 10:32:46;;;;;;;2.97;2.60;;;;;;;;;;5064189;28;20241;-54
2022/12/26 10:35:18;;;;;;;2.00;1.80;;;;;;;;;;5080238;28;20471;-54
2022/12/26 10:37:46;;;;;;;2.30;2.07;;;;;;;;;;5072959;28;20322;-54
2022/12/26 10:40:17;;;;;;;2.60;2.40;;;;;;;;;;5080474;28;20223;-54
2022/12/26 10:42:44;;;;;;;2.50;2.30;;;;;;;;;;5082514;28;20226;-54
2022/12/26 10:45:13;;;;;;;2.67;2.13;;;;;;;;;;5066317;28;20231;-54
2022/12/26 10:47:42;;;;;;;3.40;2.07;;;;;;;;;;5065813;28;20288;-55
2022/12/26 10:50:14;;;;;;;1.90;1.80;;;;;;;;;;5067162;28;20267;-54
2022/12/26 10:52:41;;;;;;;2.50;2.10;;;;;;;;;;5079278;28;20235;-54
2022/12/26 10:55:13;;;;;;;2.40;2.20;;;;;;;;;;5097844;28;25282;-55
2022/12/26 10:57:41;;;;;;;1.77;1.63;;;;;;;;;;5091852;28;20227;-54
2022/12/26 11:00:15;;;;;;;2.20;2.00;;;;;;;;;;5099835;28;21265;-55
2022/12/26 11:02:43;;;;;;;2.43;2.23;;;;;;;;;;5101058;28;20249;-54
2022/12/26 11:05:11;;;;;;;2.10;1.90;;;;;;;;;;5088839;28;20230;-54
2022/12/26 11:07:38;;;;;;;2.00;1.90;;;;;;;;;;5085812;28;24799;-55
2022/12/26 11:10:08;;;;;;;1.73;1.63;;;;;;;;;;5085715;28;20316;-54
2022/12/26 11:12:39;;;;;;;2.17;1.93;;;;;;;;;;5084704;28;20288;-55
2022/12/26 11:15:07;;;;;;;2.00;1.80;;;;;;;;;;5085629;28;20234;-55
2022/12/26 11:17:36;;;;;;;2.43;2.23;;;;;;;;;;5085010;28;20226;-53
2022/12/26 11:20:18;;;;;;;2.27;2.07;;;;;;;;;;5081436;28;20238;-54
2022/12/26 11:22:46;;;;;;;2.17;1.97;;;;;;;;;;5074993;28;20657;-55
2022/12/26 11:25:22;;;;;;;2.10;1.80;;;;;;;;;;5066710;28;20310;-54
2022/12/26 11:27:50;;;;;;;1.70;1.60;;;;;;;;;;5064859;28;20285;-56
2022/12/26 11:30:18;;;;;;;1.77;1.67;;;;;;;;;;5066470;28;20314;-55
2022/12/26 11:32:46;;;;;;;2.63;1.63;;;;;;;;;;5064198;28;20239;-54
2022/12/26 11:35:18;;;;;;;2.03;1.87;;;;;;;;;;5069931;28;20231;-54
2022/12/26 11:37:47;;;;;;;2.20;2.00;;;;;;;;;;5073188;28;20227;-54
2022/12/26 11:40:17;;;;;;;2.10;1.90;;;;;;;;;;5065831;28;20258;-55
2022/12/26 11:42:48;;;;;;;3.03;2.40;;;;;;;;;;5081248;28;20246;-54
2022/12/26 11:45:20;;;;;;;2.50;1.87;;;;;;;;;;5075664;28;20226;-54
2022/12/26 11:47:47;;;;;;;2.47;2.27;;;;;;;;;;5064816;28;20284;-55
2022/12/26 11:50:20;;;;;;;1.90;1.80;;;;;;;;;;5070180;28;20230;-55
2022/12/26 11:52:51;;;;;;;3.77;2.27;;;;;;;;;;5071505;28;20427;-54
2022/12/26 11:55:29;;;;;;;2.40;2.17;;;;;;;;;;5065620;28;20712;-56
2022/12/26 11:57:56;;;;;;;2.00;1.83;;;;;;;;;;5076280;28;20234;-55
2022/12/26 12:00:24;;;;;;;3.30;2.70;;;;;;;;;;5084760;28;20321;-54
2022/12/26 12:02:50;;;;;;;4.00;2.37;;;;;;;;;;5086042;28;20234;-55
2022/12/26 12:05:24;;;;;;;2.50;2.30;;;;;;;;;;5086605;28;20317;-55
2022/12/26 12:08:03;;;;;;;2.10;2.00;;;;;;;;;;5081481;28;20230;-54
2022/12/26 12:10:41;;;;;;;2.70;2.50;;;;;;;;;;5065946;28;20586;-56
2022/12/26 12:13:12;;;;;;;2.50;2.30;;;;;;;;;;5065237;28;20643;-54
2022/12/26 12:15:43;;;;;;;2.90;2.40;;;;;;;;;;5075540;28;20303;-54
2022/12/26 12:18:15;;;;;;;2.60;2.40;;;;;;;;;;5084610;28;20322;-54
2022/12/26 12:20:50;;;;;;;3.30;3.00;;;;;;;;;;5067329;28;20312;-55
2022/12/26 12:23:29;;;;;;;2.87;2.50;;;;;;;;;;5079543;28;20753;-54
2022/12/26 12:26:05;;;;;;;4.03;2.50;;;;;;;;;;5068642;28;20223;-54
2022/12/26 12:28:39;;;;;;;4.50;2.70;;;;;;;;;;5064022;28;20235;-55
2022/12/26 12:31:12;;;;;;;2.77;2.57;;;;;;;;;;5072036;28;20735;-56
2022/12/26 12:33:44;;;;;;;3.20;2.90;;;;;;;;;;5074290;28;20654;-55
2022/12/26 12:36:12;;;;;;;11.07;9.00;;;;;;;;;;5066161;28;20289;-55
2022/12/26 12:38:50;;;;;;;3.40;2.80;;;;;;;;;;5063412;28;20262;-54
2022/12/26 12:41:31;;;;;;;3.93;3.63;;;;;;;;;;5070742;28;20237;-55
2022/12/26 12:44:02;;;;;;;2.83;2.60;;;;;;;;;;5063870;28;20231;-55
2022/12/26 12:46:33;;;;;;;2.73;2.50;;;;;;;;;;5063579;28;20231;-55
2022/12/26 12:49:07;;;;;;;3.03;2.83;;;;;;;;;;5072596;28;20232;-55
2022/12/26 12:51:38;;;;;;;2.80;2.60;;;;;;;;;;5064108;28;20238;-56
2022/12/26 12:54:16;;;;;;;3.30;3.07;;;;;;;;;;5065077;28;20329;-55
2022/12/26 12:56:45;;;;;;;3.93;3.17;;;;;;;;;;5066733;28;20223;-54
2022/12/26 12:59:19;;;;;;;3.17;2.87;;;;;;;;;;5085195;28;20535;-54
2022/12/26 13:01:48;;;;;;;3.27;2.77;;;;;;;;;;5085572;28;20654;-54
2022/12/26 13:04:18;;;;;;;3.40;3.07;;;;;;;;;;5090940;28;20237;-54
2022/12/26 13:06:47;;;;;;;3.63;2.77;;;;;;;;;;5089983;28;20309;-56
2022/12/26 13:09:17;;;;;;;2.60;2.40;;;;;;;;;;5092886;28;20230;-55
2022/12/26 13:11:46;;;;;;;2.67;2.47;;;;;;;;;;5098806;28;20801;-54
2022/12/26 13:14:15;;;;;;;2.60;2.40;;;;;;;;;;5082172;28;20261;-56
2022/12/26 13:16:43;;;;;;;3.17;2.87;;;;;;;;;;5101043;28;20234;-58
2022/12/26 13:19:13;;;;;;;3.10;2.80;;;;;;;;;;5105898;28;20223;-57
2022/12/26 13:21:40;;;;;;;3.30;3.00;;;;;;;;;;5086014;28;20242;-56
2022/12/26 13:24:24;;;;;;;2.60;2.40;;;;;;;;;;5068557;28;20235;-55
2022/12/26 13:26:56;;;;;;;2.63;2.50;;;;;;;;;;5077314;28;20222;-55
2022/12/26 13:29:28;;;;;;;3.50;2.47;;;;;;;;;;5088169;28;20245;-55
2022/12/26 13:31:55;;;;;;;3.43;2.37;;;;;;;;;;5084801;28;20253;-55
2022/12/26 13:34:22;;;;;;;2.73;2.50;;;;;;;;;;5075218;28;20230;-54
2022/12/26 13:36:49;;;;;;;2.40;2.20;;;;;;;;;;5082590;28;20741;-55
2022/12/26 13:39:21;;;;;;;4.03;2.30;;;;;;;;;;5068883;28;20239;-59
2022/12/26 13:44:34;;;;;;;2.67;2.43;;;;;;;;;;5076949;28;20230;-58
2022/12/26 13:47:00;;;;;;;3.20;2.90;;;;;;;;;;5089669;28;20234;-55
2022/12/26 13:49:29;;;;;;;2.80;2.60;;;;;;;;;;5090378;28;20241;-57
2022/12/26 13:51:57;;;;;;;2.77;2.53;;;;;;;;;;5089538;28;20254;-55
2022/12/26 13:54:24;;;;;;;3.63;2.83;;;;;;;;;;5088008;28;20273;-56
2022/12/26 13:57:09;;;;;;;3.10;2.90;;;;;;;;;;5091150;28;20273;-58
2022/12/26 13:59:39;;;;;;;3.63;3.00;;;;;;;;;;5093358;28;20735;-54
2022/12/26 14:02:15;;;;;;;3.10;2.87;;;;;;;;;;5073061;28;20239;-55
2022/12/26 14:04:47;;;;;;;3.30;2.80;;;;;;;;;;5068682;28;20223;-56
2022/12/26 14:07:22;;;;;;;3.53;3.23;;;;;;;;;;5067915;28;20223;-58
2022/12/26 14:10:01;;;;;;;3.50;3.20;;;;;;;;;;5067767;28;20230;-56
2022/12/26 14:12:42;;;;;;;3.60;3.30;;;;;;;;;;5068019;28;21063;-54
2022/12/26 14:15:19;;;;;;;3.43;3.00;;;;;;;;;;5080798;28;20605;-54
2022/12/26 14:17:52;;;;;;;3.97;3.37;;;;;;;;;;5067128;28;20604;-54
2022/12/26 14:20:25;;;;;;;3.67;3.03;;;;;;;;;;5067007;28;20242;-55
2022/12/26 14:22:57;;;;;;;3.77;3.37;;;;;;;;;;5067920;28;20274;-55
2022/12/26 14:25:26;;;;;;;4.40;3.30;;;;;;;;;;5078325;28;20231;-54
2022/12/26 14:27:55;;;;;;;3.67;3.33;;;;;;;;;;5074684;28;20229;-54
2022/12/26 14:30:25;;;;;;;4.20;3.83;;;;;;;;;;5075224;28;20697;-54
2022/12/26 14:33:00;;;;;;;3.60;3.30;;;;;;;;;;5066377;28;20246;-54
2022/12/26 14:35:30;;;;;;;3.53;2.90;;;;;;;;;;5067392;28;20238;-54
2022/12/26 14:38:02;;;;;;;4.00;3.60;;;;;;;;;;5071703;28;20319;-55
2022/12/26 14:40:30;;;;;;;4.37;2.83;;;;;;;;;;5083400;28;20310;-55
2022/12/26 14:43:14;;;;;;;3.37;3.07;;;;;;;;;;5087503;28;20926;-54
2022/12/26 14:45:44;;;;;;;4.57;3.40;;;;;;;;;;5088428;28;20237;-55
2022/12/26 14:48:31;;;;;;;3.77;3.47;;;;;;;;;;5087253;28;20252;-59
2022/12/26 14:51:27;;;;;;;3.47;3.17;;;;;;;;;;5060934;28;20235;-55
2022/12/26 14:54:08;;;;;;;4.47;2.80;;;;;;;;;;5087617;28;20226;-57
2022/12/26 14:56:37;;;;;;;3.27;3.00;;;;;;;;;;5088464;28;20300;-55
2022/12/26 14:59:24;;;;;;;3.20;2.90;;;;;;;;;;5070355;28;20773;-58
2022/12/26 15:02:00;;;;;;;3.20;2.90;;;;;;;;;;5065672;28;20243;-59
2022/12/26 15:04:51;;;;;;;2.70;2.40;;;;;;;;;;5077397;28;20249;-56
2022/12/26 15:07:50;;;;;;;3.27;2.97;;;;;;;;;;5060616;28;20234;-58
2022/12/26 15:10:21;;;;;;;3.03;2.73;;;;;;;;;;5046206;28;20251;-56
2022/12/26 15:13:02;;;;;;;3.00;2.80;;;;;;;;;;5047113;28;20299;-59
2022/12/26 15:15:34;;;;;;;4.00;3.13;;;;;;;;;;5062020;28;20239;-55
2022/12/26 15:18:13;;;;;;;3.07;2.83;;;;;;;;;;5077360;28;20223;-55
2022/12/26 15:20:57;;;;;;;2.53;2.33;;;;;;;;;;5080237;28;20238;-58
2022/12/26 15:23:38;;;;;;;3.03;2.73;;;;;;;;;;5068499;28;20235;-54
2022/12/26 15:26:32;;;;;;;3.30;2.90;;;;;;;;;;5088004;28;20227;-56
2022/12/26 15:29:03;;;;;;;3.80;2.80;;;;;;;;;;5093164;28;20230;-55
2022/12/26 15:31:38;;;;;;;3.27;2.80;;;;;;;;;;5096193;28;20320;-55
2022/12/26 15:34:25;;;;;;;3.00;2.70;;;;;;;;;;5098414;28;20248;-54
2022/12/26 15:36:55;;;;;;;5.10;2.73;;;;;;;;;;5089637;28;20231;-55
2022/12/26 15:39:26;;;;;;;2.93;2.70;;;;;;;;;;5073776;28;20261;-55
2022/12/26 15:41:57;;;;;;;2.87;2.57;;;;;;;;;;5080562;28;20235;-55
2022/12/26 15:44:28;;;;;;;3.73;3.03;;;;;;;;;;5089754;28;20226;-54
2022/12/26 15:47:01;;;;;;;3.47;3.10;;;;;;;;;;5088603;28;20227;-55
2022/12/26 15:49:46;;;;;;;2.67;2.47;;;;;;;;;;5089620;28;20317;-55
2022/12/26 15:52:19;;;;;;;2.93;2.73;;;;;;;;;;5082711;28;20234;-62
2022/12/26 15:55:02;;;;;;;3.40;2.73;;;;;;;;;;5073818;28;20230;-63
2022/12/26 15:57:31;;;;;;;3.40;2.73;;;;;;;;;;5077818;28;20230;-61
2022/12/26 16:00:09;;;;;;;3.60;2.97;;;;;;;;;;5089194;28;20514;-57
2022/12/26 16:02:38;;;;;;;3.33;2.97;;;;;;;;;;5069369;28;20318;-55
2022/12/26 16:05:22;;;;;;;4.20;2.73;;;;;;;;;;5066064;28;20284;-57
2022/12/26 16:07:54;;;;;;;4.57;3.17;;;;;;;;;;5054915;28;20235;-55
2022/12/26 16:10:28;;;;;;;3.13;2.83;;;;;;;;;;5065328;28;20935;-57
2022/12/26 16:12:57;;;;;;;5.57;2.67;;;;;;;;;;5068173;28;20265;-57
2022/12/26 16:15:24;;;;;;;3.90;2.73;;;;;;;;;;5071200;28;20239;-59
2022/12/26 16:17:51;;;;;;;5.73;3.13;;;;;;;;;;5088235;28;20250;-55
2022/12/26 16:22:42;;;;;;;3.20;2.83;;;;;;;;;;5075166;28;20458;-55
2022/12/26 16:23:11;;;;;;;6.73;3.60;;;;;;;;;;5067253;28;20243;-61
2022/12/26 16:25:37;;;;;;;3.83;2.50;;;;;;;;;;5072075;28;20633;-54
2022/12/26 16:28:04;;;;;;;3.10;2.90;;;;;;;;;;5070785;28;20231;-55
2022/12/26 16:30:34;;;;;;;3.03;2.80;;;;;;;;;;5072812;28;20241;-55
2022/12/26 16:33:01;;;;;;;14.77;6.23;;;;;;;;;;5082827;28;20242;-55
2022/12/26 16:35:28;;;;;;;5.07;3.37;;;;;;;;;;5072859;28;20712;-60
2022/12/26 16:37:56;;;;;;;2.63;2.10;;;;;;;;;;5084767;28;20573;-58
2022/12/26 16:40:27;;;;;;;2.87;2.63;;;;;;;;;;5088636;28;20230;-55
2022/12/26 16:42:55;;;;;;;2.80;2.50;;;;;;;;;;5069587;28;20327;-61
2022/12/26 16:45:22;;;;;;;2.83;2.63;;;;;;;;;;5068484;28;20231;-55
2022/12/26 16:47:49;;;;;;;2.43;2.30;;;;;;;;;;5068892;28;20251;-57
2022/12/26 16:50:17;;;;;;;2.80;2.37;;;;;;;;;;5069499;28;20261;-57
2022/12/26 16:52:43;;;;;;;2.10;1.70;;;;;;;;;;5078357;28;20234;-55
2022/12/26 16:55:34;;;;;;;2.77;2.47;;;;;;;;;;5088889;28;20246;-60
2022/12/26 16:58:02;;;;;;;1.50;1.40;;;;;;;;;;5080421;28;20232;-55
2022/12/26 17:00:29;;;;;;;1.60;1.50;;;;;;;;;;5067088;28;20239;-55
2022/12/26 17:02:56;;;;;;;2.37;1.67;;;;;;;;;;5066253;28;20233;-55
2022/12/26 17:05:25;;;;;;;1.80;1.30;;;;;;;;;;5067779;28;20292;-55